Time;durP1;ratioP1;P1;durP2;ratioP2;P2;SDS_P1;SDS_P2;PMS_P1;PMS_P2;Temp;Humidity;BMP_temperature;BMP_pressure;BME280_temperature;BME280_humidity;BME280_pressure;Samples;Min_cycle;Max_cycle;Signal;HPM_P1;HPM_P2
2023/06/16 00:00:22;;;;;;;7.55;4.97;;;13.00;99.90;;;;;;5081306;28;20099;-31
2023/06/16 00:02:48;;;;;;;5.97;4.82;;;12.80;99.90;;;;;;5079574;28;20039;-32
2023/06/16 00:05:14;;;;;;;6.60;5.53;;;12.70;99.90;;;;;;5080685;28;20028;-32
2023/06/16 00:07:40;;;;;;;7.22;5.50;;;12.60;99.90;;;;;;5078267;28;20039;-32
2023/06/16 00:10:07;;;;;;;5.90;5.40;;;12.60;99.90;;;;;;5072891;28;20025;-40
2023/06/16 00:12:34;;;;;;;6.10;5.40;;;12.50;99.90;;;;;;5077541;28;20397;-40
2023/06/16 00:15:00;;;;;;;7.47;4.80;;;12.40;99.90;;;;;;5076542;28;20024;-41
2023/06/16 00:17:26;;;;;;;6.35;4.85;;;12.40;99.90;;;;;;5078547;28;20486;-40
2023/06/16 00:19:57;;;;;;;5.75;5.13;;;12.30;99.90;;;;;;5078100;28;20025;-39
2023/06/16 00:22:25;;;;;;;7.05;5.80;;;12.30;99.90;;;;;;5074932;28;20028;-41
2023/06/16 00:24:52;;;;;;;7.80;5.05;;;12.30;99.90;;;;;;5076393;28;20043;-39
2023/06/16 00:27:18;;;;;;;6.13;5.20;;;12.30;99.90;;;;;;5071523;28;20036;-41
2023/06/16 00:29:43;;;;;;;5.80;5.07;;;12.30;99.90;;;;;;5072988;28;20049;-38
2023/06/16 00:32:09;;;;;;;7.28;5.38;;;12.30;99.90;;;;;;5078544;28;20032;-41
2023/06/16 00:34:34;;;;;;;6.47;5.10;;;12.30;99.90;;;;;;5077905;28;20125;-38
2023/06/16 00:37:00;;;;;;;7.03;4.97;;;12.30;99.90;;;;;;5080653;28;20140;-40
2023/06/16 00:39:26;;;;;;;5.78;5.22;;;12.20;99.90;;;;;;5078334;28;20028;-39
2023/06/16 00:41:51;;;;;;;6.00;4.75;;;12.00;99.90;;;;;;5076739;28;20032;-40
2023/06/16 00:44:17;;;;;;;7.65;5.30;;;12.00;99.90;;;;;;5078720;28;20445;-41
2023/06/16 00:46:43;;;;;;;7.13;4.63;;;12.10;99.90;;;;;;5080124;28;20035;-42
2023/06/16 00:49:09;;;;;;;6.13;5.05;;;12.00;99.90;;;;;;5076376;28;20074;-41
2023/06/16 00:51:35;;;;;;;5.47;4.80;;;11.90;99.90;;;;;;5076640;28;20079;-38
2023/06/16 00:54:02;;;;;;;7.80;5.55;;;11.60;99.90;;;;;;5077413;28;20048;-39
2023/06/16 00:56:28;;;;;;;6.22;5.53;;;11.60;99.90;;;;;;5079795;28;20032;-41
2023/06/16 00:58:54;;;;;;;6.30;5.07;;;11.70;99.90;;;;;;5078224;28;20738;-41
2023/06/16 01:01:21;;;;;;;5.60;5.00;;;11.70;99.90;;;;;;5075923;28;20452;-40
2023/06/16 01:03:50;;;;;;;7.18;4.97;;;11.80;99.90;;;;;;5065998;28;20028;-37
2023/06/16 01:06:38;;;;;;;7.30;5.32;;;11.90;99.90;;;;;;5065750;28;20055;-41
2023/06/16 01:09:20;;;;;;;6.65;5.22;;;11.90;99.90;;;;;;5063853;28;20051;-42
2023/06/16 01:12:00;;;;;;;7.35;5.47;;;12.00;99.90;;;;;;5060552;28;20033;-38
2023/06/16 01:14:39;;;;;;;7.65;5.35;;;11.70;99.90;;;;;;5060843;28;20025;-38
2023/06/16 01:17:08;;;;;;;7.25;5.63;;;11.30;99.90;;;;;;5063855;28;20032;-40
2023/06/16 01:19:42;;;;;;;;;;;11.00;99.90;;;;;;5064753;28;20497;-30
2023/06/16 01:22:26;;;;;;;7.30;5.65;;;10.80;99.90;;;;;;5080492;28;19909;-30
2023/06/16 01:24:54;;;;;;;6.53;5.32;;;10.80;99.90;;;;;;5063909;28;20025;-29
2023/06/16 01:27:21;;;;;;;6.93;4.85;;;10.80;99.90;;;;;;5067409;28;20035;-29
2023/06/16 01:29:51;;;;;;;6.28;5.35;;;10.90;99.90;;;;;;5066777;28;20048;-29
2023/06/16 01:32:20;;;;;;;8.38;5.40;;;11.10;99.90;;;;;;5063742;28;20145;-29
2023/06/16 01:34:47;;;;;;;;;;;11.20;99.90;;;;;;5069634;28;20719;-31
2023/06/16 01:37:14;;;;;;;8.70;5.65;;;11.10;99.90;;;;;;5098539;28;20003;-33
2023/06/16 01:39:40;;;;;;;8.23;5.70;;;11.10;99.90;;;;;;5065424;28;20024;-30
2023/06/16 01:42:10;;;;;;;8.43;5.75;;;11.20;99.90;;;;;;5061668;28;20033;-30
2023/06/16 01:44:36;;;;;;;6.22;5.40;;;11.20;99.90;;;;;;5098781;27;20040;-30
2023/06/16 01:47:01;;;;;;;11.77;5.78;;;10.90;99.90;;;;;;5061227;28;20025;-29
2023/06/16 01:49:28;;;;;;;7.70;5.18;;;10.90;99.90;;;;;;5064681;28;20083;-34
2023/06/16 01:51:53;;;;;;;8.40;5.97;;;11.10;99.90;;;;;;5064603;28;20045;-30
2023/06/16 01:54:19;;;;;;;6.70;6.00;;;11.10;99.90;;;;;;5064465;28;20027;-32
2023/06/16 01:56:45;;;;;;;7.15;5.88;;;11.00;99.90;;;;;;5066426;28;20505;-29
2023/06/16 01:59:11;;;;;;;9.50;6.40;;;10.90;99.90;;;;;;5063205;28;20028;-30
2023/06/16 02:01:51;;;;;;;6.60;5.30;;;10.80;99.90;;;;;;5066661;28;20028;-29
2023/06/16 02:04:23;;;;;;;8.07;5.78;;;10.80;99.90;;;;;;5070145;28;20040;-29
2023/06/16 02:06:54;;;;;;;8.60;5.45;;;10.90;99.90;;;;;;5065096;28;22298;-30
2023/06/16 02:09:22;;;;;;;6.18;5.40;;;11.10;99.90;;;;;;5059422;28;20025;-41
2023/06/16 02:11:51;;;;;;;8.30;5.97;;;10.90;99.90;;;;;;5059426;28;20033;-42
2023/06/16 02:14:18;;;;;;;6.65;5.95;;;10.80;99.90;;;;;;5064358;28;20086;-42
2023/06/16 02:16:44;;;;;;;6.88;5.30;;;10.90;99.90;;;;;;5059416;28;20028;-42
2023/06/16 02:19:12;;;;;;;7.95;6.05;;;10.90;99.90;;;;;;5061276;28;20407;-39
2023/06/16 02:21:38;;;;;;;9.97;6.30;;;10.80;99.90;;;;;;5065765;28;20044;-40
2023/06/16 02:24:04;;;;;;;8.23;5.30;;;10.80;99.90;;;;;;5060581;28;20282;-40
2023/06/16 02:26:31;;;;;;;8.98;5.95;;;10.90;99.90;;;;;;5064892;28;20028;-40
2023/06/16 02:28:57;;;;;;;8.10;6.38;;;10.80;99.90;;;;;;5060541;28;20715;-36
2023/06/16 02:31:23;;;;;;;8.13;6.07;;;10.50;99.90;;;;;;5059151;28;20057;-32
2023/06/16 02:33:51;;;;;;;7.57;5.57;;;10.10;99.90;;;;;;5059215;28;20024;-33
2023/06/16 02:36:17;;;;;;;8.95;6.05;;;9.90;99.90;;;;;;5063230;28;20028;-31
2023/06/16 02:38:45;;;;;;;8.15;6.13;;;9.90;99.90;;;;;;5065155;28;20031;-31
2023/06/16 02:41:11;;;;;;;8.23;6.15;;;9.90;99.90;;;;;;5063487;28;20037;-31
2023/06/16 02:43:36;;;;;;;8.38;5.85;;;9.90;99.90;;;;;;5064651;28;20044;-32
2023/06/16 02:46:02;;;;;;;6.75;5.45;;;10.10;99.90;;;;;;5065630;28;20033;-33
2023/06/16 02:48:28;;;;;;;7.07;6.30;;;10.30;99.90;;;;;;5066369;28;20405;-31
2023/06/16 02:50:53;;;;;;;6.00;5.30;;;10.40;99.90;;;;;;5062613;28;20032;-32
2023/06/16 02:53:19;;;;;;;8.82;6.80;;;10.40;99.90;;;;;;5062490;28;20024;-32
2023/06/16 02:55:48;;;;;;;6.75;6.05;;;10.20;99.90;;;;;;5062714;28;20028;-32
2023/06/16 02:58:14;;;;;;;8.48;5.85;;;10.00;99.90;;;;;;5060721;28;20025;-33
2023/06/16 03:00:40;;;;;;;7.03;5.80;;;10.00;99.90;;;;;;5060004;28;20167;-31
2023/06/16 03:03:07;;;;;;;9.30;6.45;;;9.80;99.90;;;;;;5061823;28;20032;-33
2023/06/16 03:05:34;;;;;;;7.13;5.63;;;9.80;99.90;;;;;;5055656;28;20136;-31
2023/06/16 03:07:59;;;;;;;7.15;5.95;;;9.80;99.90;;;;;;5057656;28;20390;-32
2023/06/16 03:10:25;;;;;;;9.27;6.25;;;9.90;99.90;;;;;;5056929;28;20039;-33
2023/06/16 03:12:51;;;;;;;8.73;5.78;;;9.90;99.90;;;;;;5065281;28;20029;-32
2023/06/16 03:15:16;;;;;;;7.75;6.10;;;9.90;99.90;;;;;;5058401;28;20066;-32
2023/06/16 03:17:43;;;;;;;8.88;5.85;;;9.90;99.90;;;;;;5055204;28;20025;-34
2023/06/16 03:20:09;;;;;;;7.93;6.07;;;9.90;99.90;;;;;;5063792;28;20028;-40
2023/06/16 03:22:35;;;;;;;8.43;6.18;;;10.00;99.90;;;;;;5062926;28;20504;-37
2023/06/16 03:25:02;;;;;;;8.65;5.97;;;9.80;99.90;;;;;;5044484;28;20028;-38
2023/06/16 03:27:28;;;;;;;6.78;6.03;;;9.70;99.90;;;;;;5060535;28;20429;-39
2023/06/16 03:29:54;;;;;;;7.85;6.00;;;9.80;99.90;;;;;;5060466;28;20071;-39
2023/06/16 03:32:20;;;;;;;8.98;6.30;;;9.90;99.90;;;;;;5060879;28;20110;-40
2023/06/16 03:34:46;;;;;;;8.55;6.68;;;10.00;99.90;;;;;;5059847;28;20474;-39
2023/06/16 03:37:12;;;;;;;6.95;5.68;;;10.10;99.90;;;;;;5059815;28;20017;-39
2023/06/16 03:39:38;;;;;;;9.60;6.53;;;10.20;99.90;;;;;;5055929;28;20074;-37
2023/06/16 03:42:04;;;;;;;7.70;5.85;;;10.30;99.90;;;;;;5063229;28;20021;-39
2023/06/16 03:44:29;;;;;;;8.02;6.10;;;10.40;99.90;;;;;;5059358;28;20037;-39
2023/06/16 03:46:55;;;;;;;8.18;6.13;;;10.60;99.90;;;;;;5059277;28;20062;-39
2023/06/16 03:49:21;;;;;;;9.88;7.18;;;10.70;99.90;;;;;;5085815;28;20118;-38
2023/06/16 03:51:46;;;;;;;10.63;6.53;;;10.80;99.90;;;;;;5062509;28;20497;-36
2023/06/16 03:54:12;;;;;;;8.27;6.18;;;10.80;99.90;;;;;;5061954;28;20021;-39
2023/06/16 03:56:38;;;;;;;8.10;6.18;;;10.70;99.90;;;;;;5061481;28;20071;-39
2023/06/16 03:59:04;;;;;;;7.72;6.22;;;10.70;99.90;;;;;;5060795;28;20071;-39
2023/06/16 04:01:30;;;;;;;8.18;6.72;;;10.80;99.90;;;;;;5061466;28;20033;-38
2023/06/16 04:03:56;;;;;;;9.80;6.72;;;10.90;99.90;;;;;;5058914;28;20533;-37
2023/06/16 04:06:21;;;;;;;7.03;6.13;;;11.00;99.90;;;;;;5061657;28;20112;-39
2023/06/16 04:08:47;;;;;;;9.02;6.70;;;11.10;99.90;;;;;;5059061;28;20039;-39
2023/06/16 04:11:15;;;;;;;6.53;5.70;;;11.20;99.90;;;;;;5062586;28;20164;-40
2023/06/16 04:13:41;;;;;;;7.60;6.03;;;11.30;99.90;;;;;;5059825;28;20104;-40
2023/06/16 04:16:06;;;;;;;9.65;6.50;;;11.40;99.90;;;;;;5058021;28;20067;-39
2023/06/16 04:18:35;;;;;;;9.50;5.85;;;11.50;99.90;;;;;;5059218;28;20051;-39
2023/06/16 04:21:00;;;;;;;8.85;6.40;;;11.60;99.90;;;;;;5059888;28;20075;-39
2023/06/16 04:23:26;;;;;;;7.80;5.90;;;11.70;99.90;;;;;;5062020;28;20058;-39
2023/06/16 04:25:52;;;;;;;7.68;6.10;;;11.80;99.90;;;;;;5059407;28;21560;-39
2023/06/16 04:28:18;;;;;;;7.82;6.50;;;11.90;99.90;;;;;;5061595;28;20416;-39
2023/06/16 04:30:44;;;;;;;12.00;6.15;;;12.00;99.90;;;;;;5060881;28;20033;-40
2023/06/16 04:33:10;;;;;;;9.05;6.95;;;12.10;99.90;;;;;;5058000;28;20028;-39
2023/06/16 04:35:38;;;;;;;9.23;6.25;;;12.10;99.90;;;;;;5059961;28;20024;-37
2023/06/16 04:38:04;;;;;;;;;;;12.10;99.90;;;;;;5060313;28;20029;-39
2023/06/16 04:40:30;;;;;;;7.90;6.30;;;12.10;99.90;;;;;;5063599;28;19912;-39
2023/06/16 04:42:56;;;;;;;7.78;6.38;;;12.20;99.90;;;;;;5066290;28;20123;-35
2023/06/16 04:45:22;;;;;;;9.43;6.63;;;12.30;99.90;;;;;;5060518;28;20029;-39
2023/06/16 04:47:50;;;;;;;9.88;6.30;;;12.40;99.90;;;;;;5059519;28;20543;-40
2023/06/16 04:50:16;;;;;;;7.32;6.18;;;12.30;99.90;;;;;;5061462;28;20456;-33
2023/06/16 04:52:42;;;;;;;9.73;6.88;;;12.40;99.90;;;;;;5059273;28;20045;-29
2023/06/16 04:55:08;;;;;;;8.98;6.20;;;12.40;99.90;;;;;;5068784;28;20025;-29
2023/06/16 04:57:35;;;;;;;9.30;7.43;;;12.50;99.90;;;;;;5062833;28;20022;-32
2023/06/16 05:00:04;;;;;;;9.70;7.30;;;12.50;99.90;;;;;;5062156;28;20049;-41
2023/06/16 05:02:30;;;;;;;10.48;7.10;;;12.70;99.90;;;;;;5058904;28;20033;-40
2023/06/16 05:04:56;;;;;;;9.88;7.05;;;12.80;99.90;;;;;;5059927;28;20114;-35
2023/06/16 05:07:21;;;;;;;9.48;7.03;;;12.80;99.90;;;;;;5061631;28;20035;-40
2023/06/16 05:09:47;;;;;;;10.98;7.18;;;13.00;99.90;;;;;;5060566;28;20037;-41
2023/06/16 05:12:13;;;;;;;9.65;7.10;;;13.10;99.90;;;;;;5059683;28;20028;-39
2023/06/16 05:14:38;;;;;;;13.63;7.05;;;13.30;99.90;;;;;;5061204;28;20025;-40
2023/06/16 05:17:04;;;;;;;10.05;7.43;;;13.30;99.90;;;;;;5057910;28;20074;-41
2023/06/16 05:19:32;;;;;;;10.25;6.85;;;13.40;99.90;;;;;;5063587;28;20457;-40
2023/06/16 05:21:58;;;;;;;10.55;6.15;;;13.50;99.90;;;;;;5062984;28;20195;-40
2023/06/16 05:24:24;;;;;;;10.02;7.10;;;13.60;99.90;;;;;;5073227;28;20108;-41
2023/06/16 05:26:49;;;;;;;8.95;6.93;;;13.70;99.90;;;;;;5061087;28;20124;-42
2023/06/16 05:29:15;;;;;;;9.52;7.10;;;13.80;99.90;;;;;;5067740;28;20029;-41
2023/06/16 05:31:41;;;;;;;8.55;6.35;;;14.00;99.90;;;;;;5065680;28;20033;-41
2023/06/16 05:34:06;;;;;;;7.43;6.65;;;14.20;99.90;;;;;;5062019;28;20025;-41
2023/06/16 05:36:35;;;;;;;8.45;6.68;;;14.30;99.90;;;;;;5065164;28;20100;-42
2023/06/16 05:39:05;;;;;;;8.02;6.72;;;14.40;99.90;;;;;;5070078;28;20033;-38
2023/06/16 05:41:31;;;;;;;8.20;6.50;;;14.50;99.90;;;;;;5065642;28;20871;-40
2023/06/16 05:43:57;;;;;;;8.45;7.05;;;14.50;99.90;;;;;;5066965;28;20044;-40
2023/06/16 05:46:23;;;;;;;8.63;6.75;;;14.60;99.90;;;;;;5061094;28;20095;-38
2023/06/16 05:48:49;;;;;;;10.77;7.10;;;14.80;99.90;;;;;;5064197;28;20020;-39
2023/06/16 05:51:15;;;;;;;8.40;6.75;;;15.00;99.90;;;;;;5062243;28;20048;-39
2023/06/16 05:53:41;;;;;;;8.90;6.75;;;15.00;99.90;;;;;;5061848;28;20470;-40
2023/06/16 05:56:07;;;;;;;9.63;7.10;;;15.20;99.90;;;;;;5064783;28;20786;-39
2023/06/16 05:58:36;;;;;;;8.63;6.80;;;15.30;99.90;;;;;;5064713;28;20023;-40
2023/06/16 06:01:06;;;;;;;9.23;7.15;;;15.30;99.90;;;;;;5068891;28;20448;-40
2023/06/16 06:03:32;;;;;;;11.40;7.00;;;15.30;99.90;;;;;;5082499;28;20028;-40
2023/06/16 06:05:58;;;;;;;8.73;7.20;;;15.30;99.90;;;;;;5080834;28;20049;-40
2023/06/16 06:08:27;;;;;;;10.30;7.80;;;15.40;99.90;;;;;;5084711;28;20081;-40
2023/06/16 06:10:54;;;;;;;9.40;7.43;;;15.50;99.90;;;;;;5080022;28;20537;-40
2023/06/16 06:13:20;;;;;;;10.93;6.80;;;15.60;99.90;;;;;;5079402;28;20050;-38
2023/06/16 06:15:46;;;;;;;8.75;7.00;;;15.90;99.90;;;;;;5081180;28;20024;-37
2023/06/16 06:18:11;;;;;;;8.80;7.47;;;16.10;99.90;;;;;;5082684;28;20104;-40
2023/06/16 06:20:40;;;;;;;9.38;7.32;;;16.30;99.90;;;;;;5080096;28;20024;-39
2023/06/16 06:23:06;;;;;;;8.55;6.47;;;16.50;99.90;;;;;;5083153;28;20027;-39
2023/06/16 06:25:31;;;;;;;10.15;6.63;;;16.60;99.90;;;;;;5083371;28;20058;-40
2023/06/16 06:27:57;;;;;;;10.00;7.40;;;16.80;99.90;;;;;;5079363;28;20826;-40
2023/06/16 06:30:24;;;;;;;8.35;6.55;;;16.80;99.90;;;;;;5076994;28;20031;-40
2023/06/16 06:32:50;;;;;;;8.97;6.53;;;17.00;99.90;;;;;;5059094;28;20067;-38
2023/06/16 06:35:16;;;;;;;8.90;6.70;;;17.20;99.90;;;;;;5052191;28;20060;-38
2023/06/16 06:37:42;;;;;;;7.82;6.38;;;17.30;99.90;;;;;;5062753;28;20025;-40
2023/06/16 06:40:08;;;;;;;8.82;6.15;;;17.60;99.90;;;;;;5059542;28;20040;-39
2023/06/16 06:42:33;;;;;;;8.45;6.13;;;17.60;99.90;;;;;;5061695;28;20516;-40
2023/06/16 06:44:59;;;;;;;8.45;6.55;;;17.70;99.90;;;;;;5059192;28;20028;-40
2023/06/16 06:47:24;;;;;;;12.82;6.68;;;17.80;99.90;;;;;;5059900;28;20089;-39
2023/06/16 06:49:50;;;;;;;8.07;6.30;;;18.00;99.90;;;;;;5059915;28;20064;-32
2023/06/16 06:52:16;;;;;;;8.57;6.43;;;18.00;99.90;;;;;;5061153;28;20041;-34
2023/06/16 06:54:42;;;;;;;8.40;6.00;;;18.10;99.90;;;;;;5057284;28;20500;-34
2023/06/16 06:57:07;;;;;;;9.38;6.05;;;18.20;99.90;;;;;;5061254;28;20040;-33
2023/06/16 06:59:33;;;;;;;9.30;5.88;;;18.40;99.90;;;;;;5056919;28;20017;-33
2023/06/16 07:01:59;;;;;;;6.53;5.43;;;18.70;99.90;;;;;;5058309;28;21363;-34
2023/06/16 07:04:25;;;;;;;9.20;5.43;;;19.00;99.90;;;;;;5058695;28;20692;-32
2023/06/16 07:06:51;;;;;;;7.57;5.18;;;19.30;99.90;;;;;;5059703;28;20033;-35
2023/06/16 07:09:17;;;;;;;7.93;5.70;;;19.50;99.90;;;;;;5062044;28;20040;-32
2023/06/16 07:11:43;;;;;;;7.78;5.60;;;19.50;99.90;;;;;;5052676;28;20036;-32
2023/06/16 07:14:08;;;;;;;7.05;5.38;;;19.70;99.90;;;;;;5061991;28;20525;-33
2023/06/16 07:16:34;;;;;;;7.40;5.90;;;19.80;99.90;;;;;;5062644;28;20036;-32
2023/06/16 07:19:01;;;;;;;6.18;5.55;;;19.80;99.90;;;;;;5063654;28;20040;-39
2023/06/16 07:21:27;;;;;;;8.43;6.70;;;19.70;99.90;;;;;;5063447;28;20107;-40
2023/06/16 07:23:53;;;;;;;5.85;5.00;;;19.60;99.90;;;;;;5059523;28;20402;-40
2023/06/16 07:26:19;;;;;;;7.43;5.70;;;19.70;99.90;;;;;;5057272;28;20033;-39
2023/06/16 07:28:44;;;;;;;5.93;5.28;;;19.90;99.90;;;;;;5058243;28;20040;-37
2023/06/16 07:31:10;;;;;;;5.65;4.93;;;20.20;99.90;;;;;;5056294;28;20032;-37
2023/06/16 07:33:36;;;;;;;5.05;4.55;;;20.20;99.90;;;;;;5059197;28;20060;-40
2023/06/16 07:36:02;;;;;;;5.35;4.63;;;20.30;99.90;;;;;;5058009;28;20055;-40
2023/06/16 07:38:27;;;;;;;5.50;4.55;;;20.50;99.90;;;;;;5056799;28;20073;-41
2023/06/16 07:40:53;;;;;;;6.00;4.78;;;20.70;99.90;;;;;;5053401;28;20516;-40
2023/06/16 07:43:21;;;;;;;5.32;4.82;;;20.70;99.90;;;;;;5059330;28;20087;-38
2023/06/16 07:45:46;;;;;;;7.47;4.85;;;20.40;99.90;;;;;;5059298;28;20795;-40
2023/06/16 07:48:12;;;;;;;9.60;4.40;;;20.60;99.90;;;;;;5056858;28;20036;-40
2023/06/16 07:50:37;;;;;;;5.15;4.15;;;20.50;99.90;;;;;;5060312;28;20037;-38
2023/06/16 07:53:03;;;;;;;6.80;4.47;;;20.70;99.90;;;;;;5062250;28;20059;-41
2023/06/16 07:55:29;;;;;;;5.25;4.22;;;21.30;99.90;;;;;;5059010;28;20024;-38
2023/06/16 07:57:54;;;;;;;4.90;4.40;;;21.30;99.90;;;;;;5059344;28;20545;-40
2023/06/16 08:00:20;;;;;;;4.60;3.92;;;21.10;99.90;;;;;;5059550;28;20029;-40
2023/06/16 08:02:46;;;;;;;6.68;4.00;;;21.40;99.90;;;;;;5059399;28;20033;-39
2023/06/16 08:05:12;;;;;;;4.13;3.72;;;21.30;99.90;;;;;;5060296;28;20020;-37
2023/06/16 08:07:38;;;;;;;5.65;4.00;;;21.30;99.90;;;;;;5057189;28;20490;-39
2023/06/16 08:10:04;;;;;;;3.90;3.60;;;21.40;99.90;;;;;;5057002;28;20029;-41
2023/06/16 08:12:32;;;;;;;4.93;3.97;;;22.00;99.90;;;;;;5056684;28;20548;-40
2023/06/16 08:14:58;;;;;;;4.38;3.70;;;21.80;99.90;;;;;;5060941;28;20024;-41
2023/06/16 08:17:23;;;;;;;6.30;3.58;;;21.70;99.90;;;;;;5058994;28;20547;-37
2023/06/16 08:19:49;;;;;;;4.72;3.47;;;21.80;99.90;;;;;;5059488;28;20029;-41
2023/06/16 08:22:16;;;;;;;4.45;3.38;;;22.20;99.90;;;;;;5058463;28;20028;-39
2023/06/16 08:24:42;;;;;;;5.85;3.28;;;22.80;99.90;;;;;;5063914;28;20101;-40
2023/06/16 08:27:08;;;;;;;5.05;3.13;;;22.70;99.90;;;;;;5059545;28;20040;-38
2023/06/16 08:29:34;;;;;;;6.03;3.58;;;22.60;99.90;;;;;;5062181;28;20044;-33
2023/06/16 08:32:00;;;;;;;3.83;3.40;;;22.40;99.90;;;;;;5059165;28;20083;-40
2023/06/16 08:34:26;;;;;;;3.75;3.10;;;22.30;99.90;;;;;;5063174;28;20024;-40
2023/06/16 08:36:51;;;;;;;4.88;3.03;;;22.60;99.90;;;;;;5061940;28;20066;-41
2023/06/16 08:39:17;;;;;;;3.88;3.03;;;22.70;99.90;;;;;;5059029;28;20062;-38
2023/06/16 08:41:44;;;;;;;3.67;3.00;;;22.70;99.90;;;;;;5061418;28;20056;-41
2023/06/16 08:44:13;;;;;;;5.03;3.30;;;22.90;99.90;;;;;;5063826;28;20024;-40
2023/06/16 08:46:38;;;;;;;3.80;3.08;;;23.10;99.90;;;;;;5092899;28;20089;-40
2023/06/16 08:49:04;;;;;;;3.83;2.92;;;23.30;99.90;;;;;;5065342;28;20028;-41
2023/06/16 08:51:34;;;;;;;3.55;2.95;;;23.40;99.90;;;;;;5059514;28;20091;-39
2023/06/16 08:54:05;;;;;;;4.95;2.95;;;23.10;99.90;;;;;;5054702;28;20112;-41
2023/06/16 08:56:32;;;;;;;3.05;2.75;;;22.90;99.90;;;;;;5059750;28;20021;-40
2023/06/16 08:59:01;;;;;;;4.47;3.00;;;23.10;99.90;;;;;;5066355;28;20029;-40
2023/06/16 09:01:28;;;;;;;3.67;2.83;;;23.20;99.90;;;;;;5064983;28;20193;-40
2023/06/16 09:03:55;;;;;;;4.90;2.83;;;23.40;99.90;;;;;;5065551;28;20024;-39
2023/06/16 09:06:21;;;;;;;3.33;2.80;;;23.20;99.90;;;;;;5066583;28;20371;-39
2023/06/16 09:08:47;;;;;;;5.93;3.60;;;23.60;99.90;;;;;;5061621;28;20501;-30
2023/06/16 09:11:24;;;;;;;3.97;2.80;;;23.50;99.90;;;;;;5062756;28;20068;-30
2023/06/16 09:13:55;;;;;;;3.25;2.70;;;23.40;99.90;;;;;;5058203;28;20031;-29
2023/06/16 09:16:22;;;;;;;3.58;3.17;;;23.50;99.90;;;;;;5094826;28;20033;-31
2023/06/16 09:18:49;;;;;;;3.78;2.80;;;23.50;99.90;;;;;;5066077;28;20075;-34
2023/06/16 09:21:20;;;;;;;3.30;3.00;;;23.50;99.90;;;;;;5063433;28;20024;-31
2023/06/16 09:23:48;;;;;;;3.47;3.10;;;23.80;99.90;;;;;;5060947;28;20439;-30
2023/06/16 09:26:14;;;;;;;3.25;2.72;;;24.30;99.90;;;;;;5068994;28;20662;-30
2023/06/16 09:28:40;;;;;;;4.28;3.25;;;24.20;99.90;;;;;;5064013;28;20021;-30
2023/06/16 09:31:07;;;;;;;4.10;3.20;;;24.00;99.90;;;;;;5063401;28;20390;-36
2023/06/16 09:33:34;;;;;;;3.58;2.83;;;23.50;99.90;;;;;;5063220;28;20048;-34
2023/06/16 09:36:00;;;;;;;3.95;3.20;;;23.20;99.90;;;;;;5066058;28;20029;-37
2023/06/16 09:38:27;;;;;;;3.35;2.83;;;22.70;99.90;;;;;;5062893;28;20029;-30
2023/06/16 09:41:06;;;;;;;6.57;3.13;;;22.50;99.90;;;;;;5060624;28;20394;-30
2023/06/16 09:43:32;;;;;;;4.38;3.22;;;22.20;99.90;;;;;;5058389;28;20064;-30
2023/06/16 09:45:57;;;;;;;2.80;2.60;;;22.10;99.90;;;;;;5062818;28;20052;-32
2023/06/16 09:48:26;;;;;;;5.20;3.38;;;22.00;99.90;;;;;;5060287;28;20049;-31
2023/06/16 09:50:53;;;;;;;5.13;3.30;;;21.80;99.90;;;;;;5061230;28;20065;-31
2023/06/16 09:53:22;;;;;;;5.22;3.22;;;21.80;99.90;;;;;;5059504;28;20777;-31
2023/06/16 09:55:49;;;;;;;4.60;3.25;;;21.70;99.90;;;;;;5061595;28;20544;-37
2023/06/16 09:58:15;;;;;;;5.00;3.45;;;22.20;99.90;;;;;;5058629;28;20017;-35
2023/06/16 10:00:40;;;;;;;4.55;3.47;;;22.90;99.90;;;;;;5058465;28;20074;-35
2023/06/16 10:03:08;;;;;;;4.75;3.65;;;23.40;99.90;;;;;;5061467;28;20047;-35
2023/06/16 10:05:35;;;;;;;4.10;3.38;;;23.70;99.90;;;;;;5060309;28;20050;-32
2023/06/16 10:08:04;;;;;;;6.65;3.40;;;23.90;99.90;;;;;;5057552;28;20037;-35
2023/06/16 10:10:33;;;;;;;5.85;3.78;;;23.70;99.90;;;;;;5060123;28;20037;-33
2023/06/16 10:13:03;;;;;;;3.58;3.10;;;23.40;99.90;;;;;;5058812;28;20115;-34
2023/06/16 10:15:34;;;;;;;4.35;3.00;;;23.30;99.90;;;;;;5059124;28;20075;-33
2023/06/16 10:18:05;;;;;;;3.47;2.95;;;23.00;99.90;;;;;;5057366;28;20056;-34
2023/06/16 10:20:37;;;;;;;4.25;3.13;;;22.80;99.90;;;;;;5070883;28;20078;-35
2023/06/16 10:23:04;;;;;;;4.15;3.10;;;23.20;99.90;;;;;;5058512;28;20056;-32
2023/06/16 10:25:30;;;;;;;5.87;3.43;;;23.30;99.90;;;;;;5059327;28;20032;-33
2023/06/16 10:27:57;;;;;;;3.78;3.33;;;23.40;99.90;;;;;;5061575;28;20555;-34
2023/06/16 10:30:24;;;;;;;5.80;3.40;;;23.40;99.90;;;;;;5065530;28;20397;-32
2023/06/16 10:32:52;;;;;;;3.67;3.33;;;23.30;99.90;;;;;;5059926;28;20123;-33
2023/06/16 10:35:20;;;;;;;6.20;3.55;;;23.30;99.90;;;;;;5062002;28;20475;-32
2023/06/16 10:37:53;;;;;;;4.18;3.08;;;23.30;99.90;;;;;;5062785;28;20020;-31
2023/06/16 10:40:21;;;;;;;3.97;3.58;;;23.50;99.90;;;;;;5066007;28;20485;-34
2023/06/16 10:42:48;;;;;;;3.55;3.08;;;23.90;99.90;;;;;;5064838;28;20060;-32
2023/06/16 10:45:24;;;;;;;4.13;2.88;;;24.20;99.90;;;;;;5060162;28;20032;-32
2023/06/16 10:47:58;;;;;;;3.92;3.10;;;24.40;99.90;;;;;;5061140;28;20086;-33
2023/06/16 10:50:39;;;;;;;6.32;3.85;;;24.60;99.90;;;;;;5060634;28;20527;-39
2023/06/16 10:53:16;;;;;;;4.55;3.40;;;24.70;99.90;;;;;;5060945;28;20041;-40
2023/06/16 10:55:44;;;;;;;7.68;3.53;;;24.30;99.90;;;;;;5060753;28;20013;-40
2023/06/16 10:58:16;;;;;;;22.58;4.43;;;24.00;99.90;;;;;;5058217;28;20503;-41
2023/06/16 11:01:18;;;;;;;5.22;2.95;;;23.70;99.90;;;;;;5059805;28;20107;-41
2023/06/16 11:03:45;;;;;;;6.18;3.67;;;23.50;99.90;;;;;;5043028;28;20048;-38
2023/06/16 11:06:11;;;;;;;4.80;3.58;;;23.20;99.90;;;;;;5054472;28;20165;-40
2023/06/16 11:08:54;;;;;;;4.60;3.22;;;23.50;99.90;;;;;;5057030;28;20356;-40
2023/06/16 11:11:20;;;;;;;5.95;3.10;;;24.30;99.90;;;;;;5056309;28;20121;-37
2023/06/16 11:13:46;;;;;;;5.60;3.17;;;24.80;99.90;;;;;;5059728;28;20025;-40
2023/06/16 11:16:12;;;;;;;5.95;3.22;;;24.90;99.90;;;;;;5060342;28;20068;-37
2023/06/16 11:18:38;;;;;;;4.72;3.35;;;25.10;99.90;;;;;;5061097;28;20048;-37
2023/06/16 11:21:08;;;;;;;5.22;3.58;;;25.00;99.90;;;;;;5060735;28;20033;-41
2023/06/16 11:23:34;;;;;;;5.38;3.08;;;25.10;99.90;;;;;;5059698;28;20052;-39
2023/06/16 11:26:08;;;;;;;4.22;3.20;;;24.80;99.90;;;;;;5059717;28;20036;-40
2023/06/16 11:28:40;;;;;;;4.07;3.30;;;24.00;99.90;;;;;;5058637;28;20016;-42
2023/06/16 11:31:07;;;;;;;6.43;3.30;;;23.70;99.90;;;;;;5054965;28;20476;-42
2023/06/16 11:33:33;;;;;;;6.07;3.40;;;24.00;99.90;;;;;;5058167;28;20111;-42
2023/06/16 11:36:22;;;;;;;5.38;3.50;;;24.50;99.90;;;;;;5061695;28;20115;-42
2023/06/16 11:38:52;;;;;;;4.57;3.40;;;25.30;99.90;;;;;;5059474;28;20082;-42
2023/06/16 11:41:27;;;;;;;6.75;3.63;;;25.10;99.90;;;;;;5058530;28;20029;-42
2023/06/16 11:43:53;;;;;;;5.72;3.45;;;24.20;99.90;;;;;;5054002;28;20473;-42
2023/06/16 11:46:24;;;;;;;6.72;3.47;;;24.10;99.90;;;;;;5055831;28;20025;-39
2023/06/16 11:48:51;;;;;;;5.68;3.25;;;24.80;99.90;;;;;;5061585;28;20021;-41
2023/06/16 11:51:17;;;;;;;5.03;3.35;;;25.10;99.90;;;;;;5057489;28;20053;-42
2023/06/16 11:53:45;;;;;;;7.78;3.83;;;24.70;99.90;;;;;;5059971;28;20359;-42
2023/06/16 11:56:15;;;;;;;5.05;3.53;;;24.20;99.90;;;;;;5058525;28;20103;-40
2023/06/16 11:58:43;;;;;;;7.03;3.40;;;23.80;99.90;;;;;;5057215;28;20033;-42
2023/06/16 12:01:13;;;;;;;5.07;3.42;;;24.30;99.90;;;;;;5057606;28;20442;-39
2023/06/16 12:03:39;;;;;;;5.85;3.50;;;24.70;99.90;;;;;;5061017;28;20603;-41
2023/06/16 12:06:06;;;;;;;4.32;3.60;;;25.20;99.90;;;;;;5057750;28;20063;-41
2023/06/16 12:08:45;;;;;;;9.32;4.00;;;25.30;99.90;;;;;;5055926;28;20078;-41
2023/06/16 12:11:21;;;;;;;4.82;3.50;;;25.20;99.90;;;;;;5059611;28;20041;-41
2023/06/16 12:13:47;;;;;;;4.78;3.60;;;24.70;99.90;;;;;;5057500;28;20028;-40
2023/06/16 12:16:13;;;;;;;5.88;3.95;;;24.30;99.90;;;;;;5062656;28;20031;-39
2023/06/16 12:18:39;;;;;;;4.78;3.58;;;24.20;99.90;;;;;;5063531;28;20417;-41
2023/06/16 12:21:15;;;;;;;6.55;4.05;;;24.40;99.90;;;;;;5061586;28;20034;-40
2023/06/16 12:23:40;;;;;;;5.45;3.47;;;24.80;99.90;;;;;;5059579;28;20031;-40
2023/06/16 12:26:06;;;;;;;5.25;3.72;;;24.30;99.90;;;;;;5061743;28;20025;-40
2023/06/16 12:28:33;;;;;;;3.95;3.55;;;23.70;99.90;;;;;;5060584;28;20390;-41
2023/06/16 12:31:00;;;;;;;5.15;3.70;;;23.70;99.90;;;;;;5060161;28;20777;-42
2023/06/16 12:33:26;;;;;;;4.07;3.67;;;24.00;99.90;;;;;;5060043;28;20025;-38
2023/06/16 12:35:52;;;;;;;7.32;3.63;;;24.20;99.90;;;;;;5057868;28;20028;-40
2023/06/16 12:38:40;;;;;;;5.07;3.78;;;24.60;99.90;;;;;;5057122;28;20063;-40
2023/06/16 12:41:15;;;;;;;5.43;3.67;;;24.90;99.90;;;;;;5056180;28;20106;-40
2023/06/16 12:43:51;;;;;;;6.18;3.70;;;24.80;99.90;;;;;;5053899;28;20433;-40
2023/06/16 12:46:18;;;;;;;4.50;3.28;;;24.60;99.90;;;;;;5061197;28;20029;-42
2023/06/16 12:48:45;;;;;;;7.60;3.85;;;24.20;99.90;;;;;;5058194;28;20028;-41